Time;durP1;ratioP1;P1;durP2;ratioP2;P2;SDS_P1;SDS_P2;PMS_P1;PMS_P2;Temp;Humidity;BMP_temperature;BMP_pressure;BME280_temperature;BME280_humidity;BME280_pressure;Samples;Min_cycle;Max_cycle;Signal;HPM_P1;HPM_P2
2022/02/22 00:01:38;;;;;;;11.05;2.42;;;7.50;99.90;;;;;;4975657;28;20257;-78
2022/02/22 00:04:04;;;;;;;16.77;2.78;;;7.60;99.90;;;;;;4977087;28;20280;-78
2022/02/22 00:06:30;;;;;;;10.75;2.25;;;7.60;99.90;;;;;;4991651;28;20177;-79
2022/02/22 00:08:56;;;;;;;16.08;3.15;;;7.70;99.90;;;;;;4982236;28;20159;-78
2022/02/22 00:11:22;;;;;;;3.85;2.03;;;7.60;99.90;;;;;;4983821;28;20177;-80
2022/02/22 00:13:48;;;;;;;17.63;2.80;;;7.50;99.90;;;;;;4958955;28;20189;-78
2022/02/22 00:16:14;;;;;;;10.90;2.60;;;7.50;99.90;;;;;;4975798;28;20209;-78
2022/02/22 00:18:39;;;;;;;6.65;2.50;;;7.50;99.90;;;;;;4975863;28;20172;-79
2022/02/22 00:21:06;;;;;;;11.48;2.47;;;7.60;99.90;;;;;;4961332;28;20261;-79
2022/02/22 00:23:32;;;;;;;7.38;2.28;;;7.40;99.90;;;;;;4986591;28;20233;-79
2022/02/22 00:25:58;;;;;;;14.93;2.75;;;7.40;99.90;;;;;;4983523;28;20192;-78
2022/02/22 00:28:23;;;;;;;12.60;2.67;;;7.30;99.90;;;;;;4986324;28;20252;-78
2022/02/22 00:30:50;;;;;;;8.98;2.38;;;7.40;99.90;;;;;;4980811;28;20182;-81
2022/02/22 00:33:16;;;;;;;10.05;2.53;;;7.20;99.90;;;;;;4963808;28;20173;-79
2022/02/22 00:35:42;;;;;;;9.13;2.50;;;7.40;99.90;;;;;;4978119;28;20181;-78
2022/02/22 00:38:08;;;;;;;6.90;2.53;;;7.40;99.90;;;;;;4977482;28;20177;-79
2022/02/22 00:40:34;;;;;;;13.75;2.17;;;7.40;99.90;;;;;;4977614;28;20173;-77
2022/02/22 00:43:00;;;;;;;20.42;2.80;;;7.50;99.90;;;;;;4977597;28;20260;-79
2022/02/22 00:45:26;;;;;;;12.15;2.78;;;7.60;99.90;;;;;;4960111;28;20667;-78
2022/02/22 00:47:52;;;;;;;12.18;2.53;;;7.50;99.90;;;;;;4976782;28;20236;-77
2022/02/22 00:50:18;;;;;;;6.10;2.38;;;7.40;99.90;;;;;;4977504;28;20221;-77
2022/02/22 00:52:44;;;;;;;11.32;2.17;;;7.40;99.90;;;;;;4960749;28;20173;-79
2022/02/22 00:55:09;;;;;;;10.05;2.72;;;7.40;99.90;;;;;;4978261;28;20186;-78
2022/02/22 00:57:37;;;;;;;23.45;2.88;;;7.40;99.90;;;;;;4977534;28;20177;-78
2022/02/22 01:00:06;;;;;;;16.42;2.67;;;7.20;99.90;;;;;;4980962;28;20162;-78
2022/02/22 01:02:32;;;;;;;12.52;2.65;;;7.30;99.90;;;;;;4980153;28;20306;-77
2022/02/22 01:04:58;;;;;;;9.43;2.08;;;7.40;99.90;;;;;;4981902;28;20694;-80
2022/02/22 01:07:26;;;;;;;12.38;2.63;;;7.30;99.90;;;;;;4979668;28;20206;-78
2022/02/22 01:09:52;;;;;;;7.05;2.60;;;7.30;99.90;;;;;;4977046;28;20181;-78
2022/02/22 01:12:18;;;;;;;15.23;2.38;;;7.20;99.90;;;;;;4977653;28;20173;-79
2022/02/22 01:14:44;;;;;;;15.32;2.67;;;7.30;99.90;;;;;;4976454;28;20198;-79
2022/02/22 01:17:10;;;;;;;9.23;4.28;;;7.30;99.90;;;;;;4976887;28;20169;-79
2022/02/22 01:19:36;;;;;;;10.18;2.85;;;7.50;99.90;;;;;;4978364;28;20251;-78
2022/02/22 01:22:02;;;;;;;12.57;2.53;;;7.30;99.90;;;;;;4975850;28;20549;-77
2022/02/22 01:24:28;;;;;;;12.52;2.35;;;7.30;99.90;;;;;;4975825;28;20696;-78
2022/02/22 01:26:54;;;;;;;18.13;2.78;;;7.00;99.90;;;;;;4958490;28;20198;-78
2022/02/22 01:29:20;;;;;;;11.40;2.63;;;6.90;99.90;;;;;;4979039;28;20196;-78
2022/02/22 01:31:45;;;;;;;7.57;1.92;;;7.00;99.90;;;;;;4977306;28;20193;-77
2022/02/22 01:34:11;;;;;;;18.23;2.75;;;7.00;99.90;;;;;;4977450;28;20225;-78
2022/02/22 01:36:37;;;;;;;15.75;2.50;;;7.10;99.90;;;;;;4975510;28;20659;-78
2022/02/22 01:39:04;;;;;;;14.52;2.75;;;7.10;99.90;;;;;;4975323;28;20526;-78
2022/02/22 01:41:32;;;;;;;7.85;2.42;;;7.20;99.90;;;;;;4975184;28;20173;-78
2022/02/22 01:43:58;;;;;;;10.02;2.03;;;7.30;99.90;;;;;;4975192;28;20186;-78
2022/02/22 01:46:24;;;;;;;13.23;2.72;;;7.20;99.90;;;;;;4975119;28;20166;-78
2022/02/22 01:48:50;;;;;;;20.52;2.67;;;7.10;99.90;;;;;;4974791;28;20255;-78
2022/02/22 01:51:16;;;;;;;8.15;2.03;;;7.10;99.90;;;;;;4975730;28;20170;-78
2022/02/22 01:53:42;;;;;;;15.57;2.17;;;7.20;99.90;;;;;;4974577;28;20194;-79
2022/02/22 01:56:09;;;;;;;14.75;2.00;;;7.20;99.90;;;;;;4975321;28;20162;-79
2022/02/22 01:58:35;;;;;;;16.40;2.80;;;7.10;99.90;;;;;;4975514;28;20169;-79
2022/02/22 02:01:01;;;;;;;16.08;2.40;;;7.20;99.90;;;;;;4974751;28;20642;-79
2022/02/22 02:03:28;;;;;;;12.10;2.50;;;7.30;99.90;;;;;;4974581;28;20239;-79
2022/02/22 02:05:54;;;;;;;10.25;2.20;;;7.40;99.90;;;;;;4974575;28;20173;-78
2022/02/22 02:08:20;;;;;;;9.65;2.30;;;7.30;99.90;;;;;;4974297;28;20205;-79
2022/02/22 02:10:46;;;;;;;8.25;2.10;;;7.20;99.90;;;;;;4974393;28;20247;-79
2022/02/22 02:13:12;;;;;;;15.23;2.97;;;7.30;99.90;;;;;;4974122;28;20170;-80
2022/02/22 02:15:38;;;;;;;16.63;3.22;;;7.20;99.90;;;;;;4973874;28;20208;-79
2022/02/22 02:18:03;;;;;;;5.82;1.98;;;7.10;99.90;;;;;;4974581;28;20170;-81
2022/02/22 02:20:29;;;;;;;19.02;2.55;;;7.00;99.90;;;;;;4974378;28;20212;-78
2022/02/22 02:22:56;;;;;;;13.98;2.42;;;6.90;99.90;;;;;;4974254;28;20197;-79
2022/02/22 02:25:23;;;;;;;15.13;2.33;;;6.90;99.90;;;;;;4974045;28;20196;-79
2022/02/22 02:27:48;;;;;;;8.32;2.65;;;7.00;99.90;;;;;;4974086;28;20197;-79
2022/02/22 02:30:15;;;;;;;9.38;2.20;;;6.90;99.90;;;;;;4973826;28;20664;-79
2022/02/22 02:32:41;;;;;;;8.85;2.05;;;6.80;99.90;;;;;;4974347;28;20182;-79
2022/02/22 02:35:08;;;;;;;5.93;1.90;;;6.60;99.90;;;;;;4973916;28;20670;-83
2022/02/22 02:37:38;;;;;;;8.32;1.75;;;6.60;99.90;;;;;;4973933;28;20233;-79
2022/02/22 02:40:07;;;;;;;10.23;2.08;;;6.60;99.90;;;;;;4972482;28;20178;-80
2022/02/22 02:42:33;;;;;;;15.52;2.08;;;6.60;99.90;;;;;;4973840;28;20216;-78
2022/02/22 02:44:59;;;;;;;3.85;1.63;;;6.60;99.90;;;;;;4973820;28;20198;-79
2022/02/22 02:47:25;;;;;;;9.95;2.33;;;6.60;99.90;;;;;;4974088;28;20229;-79
2022/02/22 02:49:51;;;;;;;11.43;2.53;;;6.60;99.90;;;;;;4973695;28;20642;-79
2022/02/22 02:52:16;;;;;;;9.95;2.90;;;6.40;99.90;;;;;;4973916;28;20181;-79
2022/02/22 02:54:42;;;;;;;7.70;1.88;;;6.50;99.90;;;;;;4972536;28;20194;-79
2022/02/22 02:57:08;;;;;;;9.65;2.35;;;6.60;99.90;;;;;;4974047;28;20177;-78
2022/02/22 02:59:34;;;;;;;9.13;2.38;;;6.50;99.90;;;;;;4974201;28;20185;-78
2022/02/22 03:01:59;;;;;;;20.63;2.30;;;6.60;99.90;;;;;;4973703;28;20170;-79
2022/02/22 03:04:25;;;;;;;13.75;2.25;;;6.60;99.90;;;;;;4973370;28;20586;-79
2022/02/22 03:06:51;;;;;;;12.07;2.35;;;6.80;99.90;;;;;;4975967;28;20627;-79
2022/02/22 03:09:16;;;;;;;8.40;2.17;;;6.70;99.90;;;;;;4977307;28;20169;-78
2022/02/22 03:11:43;;;;;;;14.18;2.35;;;6.60;99.90;;;;;;4977517;28;20623;-79
2022/02/22 03:14:09;;;;;;;7.25;1.88;;;6.50;99.90;;;;;;4977215;28;20233;-79
2022/02/22 03:16:35;;;;;;;16.35;1.83;;;6.30;99.90;;;;;;4977140;28;20173;-79
2022/02/22 03:19:02;;;;;;;8.40;1.65;;;6.20;99.90;;;;;;4959346;28;20170;-79
2022/02/22 03:21:29;;;;;;;12.57;2.28;;;6.20;99.90;;;;;;4977047;28;20178;-79
2022/02/22 03:23:56;;;;;;;5.50;2.10;;;6.10;99.90;;;;;;4976928;28;20201;-79
2022/02/22 03:26:21;;;;;;;15.52;2.55;;;6.30;99.90;;;;;;4976868;28;20540;-78
2022/02/22 03:28:47;;;;;;;14.40;2.22;;;6.30;99.90;;;;;;4976692;28;20205;-77
2022/02/22 03:31:12;;;;;;;14.85;2.35;;;6.60;99.90;;;;;;4976722;28;20297;-79
2022/02/22 03:33:38;;;;;;;8.20;2.28;;;6.50;99.90;;;;;;4959440;28;20659;-78
2022/02/22 03:36:04;;;;;;;4.10;1.70;;;6.50;99.90;;;;;;4976920;28;20172;-79
2022/02/22 03:38:30;;;;;;;23.35;3.53;;;6.40;99.90;;;;;;4959782;28;20174;-78
2022/02/22 03:40:56;;;;;;;10.98;2.40;;;6.40;99.90;;;;;;4976677;28;20232;-78
2022/02/22 03:43:22;;;;;;;6.55;2.25;;;6.40;99.90;;;;;;4976623;28;20197;-78
2022/02/22 03:45:47;;;;;;;8.25;1.98;;;6.30;99.90;;;;;;4976752;28;20166;-78
2022/02/22 03:48:13;;;;;;;12.30;2.00;;;6.30;99.90;;;;;;4976801;28;20205;-78
2022/02/22 03:50:39;;;;;;;7.75;1.90;;;6.50;99.90;;;;;;4976981;28;20177;-79
2022/02/22 03:53:04;;;;;;;11.60;2.55;;;6.60;99.90;;;;;;4977105;28;20182;-78
2022/02/22 03:55:30;;;;;;;11.38;2.00;;;6.70;99.90;;;;;;4976034;28;20208;-78
2022/02/22 03:57:56;;;;;;;12.63;2.10;;;6.60;99.90;;;;;;4976516;28;20193;-78
2022/02/22 04:00:24;;;;;;;18.27;3.08;;;6.50;99.90;;;;;;4976608;28;20618;-78
2022/02/22 04:02:50;;;;;;;6.60;1.90;;;6.80;99.90;;;;;;4976528;28;20162;-78
2022/02/22 04:05:17;;;;;;;7.72;2.70;;;7.00;99.90;;;;;;4976086;28;20198;-78
2022/02/22 04:07:44;;;;;;;14.52;2.47;;;6.70;99.90;;;;;;4974910;28;20749;-79
2022/02/22 04:10:11;;;;;;;9.68;2.05;;;6.70;99.90;;;;;;4976209;28;20208;-79
2022/02/22 04:12:37;;;;;;;11.00;2.85;;;6.80;99.90;;;;;;4976047;28;20177;-78
2022/02/22 04:15:05;;;;;;;6.63;1.85;;;6.80;99.90;;;;;;4976195;28;20193;-78
2022/02/22 04:17:30;;;;;;;10.45;2.33;;;6.70;99.90;;;;;;4976452;28;20193;-78
2022/02/22 04:19:56;;;;;;;15.90;2.03;;;6.80;99.90;;;;;;4974790;28;20201;-81
2022/02/22 04:22:22;;;;;;;9.77;3.42;;;6.90;99.90;;;;;;4976459;28;20172;-78
2022/02/22 04:24:47;;;;;;;7.85;1.83;;;6.70;99.90;;;;;;4976101;28;20189;-79
2022/02/22 04:27:13;;;;;;;16.02;2.13;;;6.60;99.90;;;;;;4975836;28;20209;-78
2022/02/22 04:29:39;;;;;;;5.70;1.98;;;6.60;99.90;;;;;;4975801;28;20527;-78
2022/02/22 04:32:06;;;;;;;11.13;2.83;;;6.40;99.90;;;;;;4975817;28;20188;-78
2022/02/22 04:34:31;;;;;;;7.68;3.10;;;6.40;99.90;;;;;;4976204;28;20186;-78
2022/02/22 04:36:57;;;;;;;15.20;2.65;;;6.50;99.90;;;;;;4976023;28;20714;-80
2022/02/22 04:39:23;;;;;;;14.15;3.97;;;6.60;99.90;;;;;;4976210;28;20166;-78
2022/02/22 04:41:50;;;;;;;16.33;4.57;;;6.60;99.90;;;;;;4958883;28;20186;-79
2022/02/22 04:44:16;;;;;;;11.40;2.22;;;6.50;99.90;;;;;;4958688;28;20196;-79
2022/02/22 04:46:42;;;;;;;4.53;1.70;;;6.50;99.90;;;;;;4975804;28;20200;-78
2022/02/22 04:49:09;;;;;;;8.23;1.67;;;6.50;99.90;;;;;;4975703;28;20635;-78
2022/02/22 04:51:39;;;;;;;13.95;2.60;;;6.60;99.90;;;;;;4975525;28;20170;-80
2022/02/22 04:54:05;;;;;;;10.05;2.58;;;6.60;99.90;;;;;;4975184;28;20185;-80
2022/02/22 04:56:31;;;;;;;16.85;2.78;;;6.70;99.90;;;;;;4975659;28;20697;-78
2022/02/22 04:58:57;;;;;;;8.23;2.70;;;6.80;99.90;;;;;;4975567;28;20166;-79
2022/02/22 05:01:23;;;;;;;14.52;2.78;;;6.90;99.90;;;;;;4975627;28;20221;-78
2022/02/22 05:03:49;;;;;;;17.45;2.70;;;6.90;99.90;;;;;;4975374;28;20194;-78
2022/02/22 05:06:14;;;;;;;9.85;2.63;;;7.10;99.90;;;;;;4975896;28;20170;-78
2022/02/22 05:08:40;;;;;;;5.20;2.30;;;7.00;99.90;;;;;;4975634;28;20202;-78
2022/02/22 05:11:06;;;;;;;13.88;2.38;;;6.90;99.90;;;;;;4975923;28;20202;-78
2022/02/22 05:13:32;;;;;;;8.93;3.65;;;6.80;99.90;;;;;;4975594;28;20172;-78
2022/02/22 05:15:58;;;;;;;22.25;2.67;;;6.80;99.90;;;;;;4975046;28;20538;-78
2022/02/22 05:18:24;;;;;;;15.35;3.28;;;6.80;99.90;;;;;;4975112;28;20180;-79
2022/02/22 05:20:56;;;;;;;6.28;2.53;;;6.70;99.90;;;;;;4975143;28;20504;-78
2022/02/22 05:23:23;;;;;;;5.78;2.72;;;6.90;99.90;;;;;;4975578;28;20201;-79
2022/02/22 05:25:49;;;;;;;9.43;3.20;;;7.00;99.90;;;;;;4975416;28;20233;-80
2022/02/22 05:28:14;;;;;;;10.52;3.08;;;6.90;99.90;;;;;;4974453;28;20209;-78
2022/02/22 05:30:40;;;;;;;17.00;3.45;;;6.80;99.90;;;;;;4974586;28;20770;-79
2022/02/22 05:33:06;;;;;;;23.48;4.80;;;6.60;99.90;;;;;;4974690;28;20661;-79
2022/02/22 05:35:32;;;;;;;32.55;4.40;;;6.60;99.90;;;;;;4974568;28;20212;-78
2022/02/22 05:37:59;;;;;;;30.45;4.72;;;6.70;99.90;;;;;;4974687;28;20189;-79
2022/02/22 05:40:25;;;;;;;20.25;3.17;;;6.80;99.90;;;;;;4974630;28;20162;-78
2022/02/22 05:42:50;;;;;;;23.00;3.65;;;6.90;99.90;;;;;;4974772;28;20193;-79
2022/02/22 05:45:16;;;;;;;13.52;3.08;;;6.70;99.90;;;;;;4974994;28;20682;-79
2022/02/22 05:47:42;;;;;;;18.80;2.92;;;6.50;99.90;;;;;;4975088;28;20206;-79
2022/02/22 05:50:08;;;;;;;17.75;4.53;;;6.30;99.90;;;;;;4975396;28;20174;-80
2022/02/22 05:52:34;;;;;;;15.57;3.78;;;6.20;99.90;;;;;;4957723;28;20173;-78
2022/02/22 05:54:59;;;;;;;26.15;3.67;;;6.10;99.90;;;;;;4974553;28;20193;-79
2022/02/22 05:57:26;;;;;;;22.95;3.90;;;6.10;99.90;;;;;;4973956;28;20170;-84
2022/02/22 05:59:52;;;;;;;22.40;4.57;;;6.10;99.90;;;;;;4974011;28;20171;-78
2022/02/22 06:02:17;;;;;;;28.98;4.05;;;6.10;99.90;;;;;;4956380;28;20174;-79
2022/02/22 06:04:43;;;;;;;20.42;5.05;;;6.10;99.90;;;;;;4973918;28;20221;-79
2022/02/22 06:07:08;;;;;;;20.77;4.78;;;6.00;99.90;;;;;;4973798;28;20216;-79
2022/02/22 06:09:37;;;;;;;22.80;4.47;;;6.00;99.90;;;;;;4973461;28;20209;-79
2022/02/22 06:12:03;;;;;;;12.40;4.32;;;6.00;99.90;;;;;;4973501;28;20217;-78
2022/02/22 06:14:28;;;;;;;22.40;4.60;;;6.10;99.90;;;;;;4973561;28;20205;-78
2022/02/22 06:16:54;;;;;;;33.60;4.05;;;6.00;99.90;;;;;;4955921;28;20553;-78
2022/02/22 06:19:20;;;;;;;22.40;4.88;;;5.80;99.90;;;;;;4973554;28;20173;-78
2022/02/22 06:21:46;;;;;;;20.70;4.78;;;5.90;99.90;;;;;;4974037;28;20184;-79
2022/02/22 06:24:11;;;;;;;11.60;4.22;;;6.00;99.90;;;;;;4974091;28;20594;-78
2022/02/22 06:26:37;;;;;;;15.93;4.70;;;6.00;99.90;;;;;;4973724;28;20173;-79
2022/02/22 06:29:04;;;;;;;25.58;4.50;;;6.00;99.90;;;;;;4973731;28;20213;-79
2022/02/22 06:31:30;;;;;;;23.33;3.58;;;6.00;99.90;;;;;;4973438;28;20189;-79
2022/02/22 06:33:56;;;;;;;28.73;3.97;;;6.00;99.90;;;;;;4973743;28;20273;-79
2022/02/22 06:36:21;;;;;;;26.85;4.00;;;6.10;99.90;;;;;;4973497;28;20169;-79
2022/02/22 06:38:47;;;;;;;21.77;4.13;;;6.30;99.90;;;;;;4973551;28;20170;-78
2022/02/22 06:41:13;;;;;;;25.00;4.55;;;6.30;99.90;;;;;;4976582;28;20162;-79
2022/02/22 06:43:38;;;;;;;32.28;4.72;;;6.40;99.90;;;;;;4960271;28;20194;-78
2022/02/22 06:46:04;;;;;;;22.58;4.18;;;6.50;99.90;;;;;;4960084;28;20197;-79
2022/02/22 06:48:29;;;;;;;27.05;4.65;;;6.30;99.90;;;;;;4977261;28;20216;-77
2022/02/22 06:50:55;;;;;;;27.52;5.38;;;6.10;99.90;;;;;;4977012;28;20201;-79
2022/02/22 06:53:21;;;;;;;21.52;3.60;;;6.20;99.90;;;;;;4976740;28;20174;-79
2022/02/22 06:55:46;;;;;;;17.80;3.63;;;6.30;99.90;;;;;;4977067;28;20170;-78
2022/02/22 06:58:12;;;;;;;25.77;4.93;;;6.50;99.90;;;;;;4977157;28;20181;-78
2022/02/22 07:00:40;;;;;;;27.63;5.35;;;6.50;99.90;;;;;;4977168;28;20248;-85
2022/02/22 07:03:06;;;;;;;28.55;5.18;;;6.60;99.90;;;;;;4976836;28;20174;-78
2022/02/22 07:05:34;;;;;;;21.33;3.85;;;6.60;99.90;;;;;;4977321;28;20193;-79
2022/02/22 07:07:59;;;;;;;23.90;4.22;;;6.90;99.90;;;;;;4976876;28;20264;-78
2022/02/22 07:10:26;;;;;;;24.55;4.85;;;6.90;99.90;;;;;;4976835;28;21208;-78
2022/02/22 07:12:52;;;;;;;21.83;3.97;;;7.10;99.90;;;;;;4976936;28;20192;-78
2022/02/22 07:15:19;;;;;;;26.98;4.72;;;7.10;99.90;;;;;;4976694;28;20666;-77
2022/02/22 07:17:54;;;;;;;12.77;3.75;;;7.00;99.90;;;;;;4977125;28;20261;-78
2022/02/22 07:20:20;;;;;;;25.80;5.00;;;6.90;99.90;;;;;;4977306;28;20264;-78
2022/02/22 07:22:48;;;;;;;19.38;4.50;;;7.10;99.90;;;;;;4977387;28;20210;-79
2022/02/22 07:25:15;;;;;;;18.65;4.00;;;7.10;99.90;;;;;;4976633;28;20598;-78
2022/02/22 07:27:44;;;;;;;13.90;3.60;;;7.00;99.90;;;;;;4976271;28;20209;-78
2022/02/22 07:30:21;;;;;;;21.08;3.95;;;7.00;99.90;;;;;;4975452;28;20260;-78
2022/02/22 07:32:48;;;;;;;28.38;4.47;;;6.90;99.90;;;;;;4976216;28;20173;-78
2022/02/22 07:35:14;;;;;;;15.40;2.90;;;7.00;99.90;;;;;;4976076;28;20182;-78
2022/02/22 07:37:41;;;;;;;14.73;4.47;;;7.00;99.90;;;;;;4976058;28;20539;-78
2022/02/22 07:40:09;;;;;;;14.60;3.92;;;7.20;99.90;;;;;;4975955;28;20543;-79
2022/02/22 07:42:35;;;;;;;16.98;3.25;;;7.20;99.90;;;;;;4976214;28;20188;-78
2022/02/22 07:45:01;;;;;;;31.25;4.63;;;7.10;99.90;;;;;;4975169;28;20237;-78
2022/02/22 07:47:27;;;;;;;20.80;4.20;;;7.40;99.90;;;;;;4976065;28;20209;-79
2022/02/22 07:49:53;;;;;;;18.02;2.92;;;7.30;99.90;;;;;;4975926;28;20178;-78
2022/02/22 07:52:18;;;;;;;15.90;3.10;;;7.40;99.90;;;;;;4958128;28;20178;-78
2022/02/22 07:54:45;;;;;;;12.63;3.83;;;7.40;99.90;;;;;;4975967;28;20194;-81
2022/02/22 07:57:11;;;;;;;11.77;3.08;;;7.50;99.90;;;;;;4975691;28;20189;-79
2022/02/22 07:59:36;;;;;;;19.05;3.25;;;7.50;99.90;;;;;;4975744;28;20618;-78
2022/02/22 08:02:02;;;;;;;17.23;3.47;;;7.40;99.90;;;;;;4975288;28;20159;-78
2022/02/22 08:04:28;;;;;;;19.15;3.28;;;7.60;99.90;;;;;;4975451;28;20193;-78
2022/02/22 08:06:57;;;;;;;15.75;4.70;;;7.40;99.90;;;;;;4975703;28;20166;-78
2022/02/22 08:09:23;;;;;;;25.60;4.70;;;7.40;99.90;;;;;;4975287;28;20631;-78
2022/02/22 08:11:49;;;;;;;15.05;3.33;;;7.60;99.90;;;;;;4975591;28;20170;-78
2022/02/22 08:14:15;;;;;;;18.95;3.92;;;7.70;99.90;;;;;;4975261;28;20241;-77
2022/02/22 08:16:41;;;;;;;25.85;5.55;;;7.80;99.90;;;;;;4975489;28;20220;-78
2022/02/22 08:19:07;;;;;;;18.00;4.22;;;8.00;99.90;;;;;;4977044;28;20538;-77
2022/02/22 08:21:34;;;;;;;19.02;4.22;;;8.00;99.90;;;;;;4962211;28;20721;-77
2022/02/22 08:24:01;;;;;;;22.63;4.05;;;8.20;99.90;;;;;;4960338;28;20248;-76
2022/02/22 08:26:27;;;;;;;24.50;3.83;;;8.20;99.90;;;;;;4978270;28;20260;-77
2022/02/22 08:28:53;;;;;;;33.70;5.35;;;8.00;99.90;;;;;;4979549;28;20760;-78
2022/02/22 08:31:19;;;;;;;18.05;4.10;;;8.00;99.90;;;;;;4979964;28;20189;-77
2022/02/22 08:33:45;;;;;;;24.13;5.20;;;7.90;99.90;;;;;;4978001;28;20667;-78
2022/02/22 08:36:13;;;;;;;16.85;4.15;;;7.90;99.90;;;;;;4978973;28;20174;-79
2022/02/22 08:38:39;;;;;;;20.45;4.45;;;8.00;99.90;;;;;;4977856;28;20204;-81
2022/02/22 08:41:06;;;;;;;22.92;4.32;;;8.00;99.90;;;;;;4975196;28;20597;-77
2022/02/22 08:43:33;;;;;;;26.48;4.53;;;8.20;99.90;;;;;;4976855;28;20162;-77
2022/02/22 08:46:01;;;;;;;39.17;5.47;;;8.10;99.90;;;;;;4975512;28;20173;-77
2022/02/22 08:48:27;;;;;;;31.38;4.38;;;8.20;99.90;;;;;;4976256;28;20237;-78
2022/02/22 08:50:54;;;;;;;27.38;3.78;;;8.30;99.90;;;;;;4970460;28;20174;-79
2022/02/22 08:53:20;;;;;;;22.13;4.65;;;8.40;99.90;;;;;;4974786;28;20209;-78
2022/02/22 08:55:46;;;;;;;29.25;4.97;;;8.60;99.90;;;;;;4971458;28;20194;-81
2022/02/22 08:58:13;;;;;;;31.55;5.22;;;8.70;99.90;;;;;;4970914;28;20174;-85
2022/02/22 09:00:39;;;;;;;31.10;5.13;;;8.60;99.90;;;;;;4975335;28;20185;-82
2022/02/22 09:03:05;;;;;;;23.48;5.70;;;8.60;99.90;;;;;;4972861;28;20220;-82
2022/02/22 09:05:36;;;;;;;20.65;4.40;;;8.80;99.90;;;;;;4977692;28;20281;-85
2022/02/22 09:08:01;;;;;;;31.30;6.25;;;8.90;99.90;;;;;;4976119;28;20205;-80
2022/02/22 09:10:27;;;;;;;31.23;6.32;;;9.00;99.90;;;;;;4978430;28;20177;-82
2022/02/22 09:12:53;;;;;;;34.42;6.50;;;9.00;99.90;;;;;;4978194;28;20185;-83
2022/02/22 09:15:22;;;;;;;29.77;5.35;;;9.00;99.90;;;;;;4976544;28;20186;-84
2022/02/22 09:17:49;;;;;;;45.10;6.68;;;8.80;99.90;;;;;;4957324;28;20188;-84
2022/02/22 09:20:17;;;;;;;35.47;5.82;;;9.00;99.90;;;;;;4974932;28;20170;-79
2022/02/22 09:22:43;;;;;;;40.33;5.60;;;9.10;99.90;;;;;;4974740;28;20626;-79
2022/02/22 09:25:18;;;;;;;33.55;5.32;;;9.20;99.90;;;;;;5071081;27;20559;-79
2022/02/22 09:27:44;;;;;;;38.03;6.38;;;9.30;99.90;;;;;;5007553;28;20197;-78
2022/02/22 09:30:14;;;;;;;20.15;4.70;;;9.20;99.90;;;;;;5005621;28;20252;-81
2022/02/22 09:32:44;;;;;;;40.80;5.75;;;9.20;99.90;;;;;;5012448;28;20175;-84
2022/02/22 09:35:13;;;;;;;26.95;5.20;;;9.40;99.90;;;;;;5008168;28;20188;-83
2022/02/22 09:37:38;;;;;;;37.05;6.28;;;9.40;99.90;;;;;;5010263;28;20221;-86
2022/02/22 09:40:04;;;;;;;35.75;5.90;;;9.40;99.90;;;;;;5011047;28;20263;-86
2022/02/22 09:42:30;;;;;;;24.73;5.22;;;9.50;99.90;;;;;;5010106;28;20649;-86
2022/02/22 09:44:56;;;;;;;31.73;5.55;;;9.50;99.90;;;;;;5010279;28;20212;-79
2022/02/22 09:47:22;;;;;;;31.17;6.63;;;9.60;99.90;;;;;;5011975;28;20168;-83
2022/02/22 09:49:47;;;;;;;28.42;5.72;;;9.80;99.90;;;;;;5010765;28;20199;-84
2022/02/22 09:52:14;;;;;;;42.97;6.60;;;9.90;99.90;;;;;;5009008;28;20544;-82
2022/02/22 09:54:40;;;;;;;33.05;5.45;;;10.00;99.90;;;;;;5011227;28;20196;-82
2022/02/22 09:57:06;;;;;;;42.05;5.85;;;10.10;99.90;;;;;;5018363;28;20714;-78
2022/02/22 09:59:32;;;;;;;48.60;6.35;;;10.00;99.90;;;;;;5007489;28;20173;-84
2022/02/22 10:01:58;;;;;;;39.72;8.13;;;10.00;99.90;;;;;;5010432;28;20226;-86
2022/02/22 10:04:25;;;;;;;32.97;5.75;;;10.00;99.90;;;;;;5012784;28;20208;-80
2022/02/22 10:07:01;;;;;;;34.50;6.90;;;9.90;99.90;;;;;;5023154;28;20181;-78
2022/02/22 10:09:27;;;;;;;52.67;7.13;;;9.90;99.90;;;;;;5018249;28;20165;-79
2022/02/22 10:11:54;;;;;;;45.08;6.25;;;9.80;99.90;;;;;;5023694;28;20243;-80
2022/02/22 10:14:32;;;;;;;34.80;6.70;;;9.80;99.90;;;;;;5021664;28;20177;-78
2022/02/22 10:16:58;;;;;;;38.72;5.25;;;9.70;99.90;;;;;;5086959;28;20334;-82
2022/02/22 10:19:30;;;;;;;41.63;6.65;;;9.70;99.90;;;;;;5017058;28;20188;-83
2022/02/22 10:21:57;;;;;;;32.85;5.68;;;9.60;99.90;;;;;;4994740;28;20171;-78
2022/02/22 10:24:35;;;;;;;26.88;5.72;;;9.50;99.90;;;;;;5078665;28;20311;-79
2022/02/22 10:27:06;;;;;;;38.47;6.03;;;9.50;99.90;;;;;;5115856;28;20162;-83
2022/02/22 10:29:33;;;;;;;43.58;7.25;;;9.40;99.90;;;;;;5115895;28;20174;-78
2022/02/22 10:32:10;;;;;;;42.88;6.85;;;9.40;99.90;;;;;;5116263;28;20150;-79
2022/02/22 10:34:36;;;;;;;40.42;5.68;;;9.40;99.90;;;;;;5014937;28;20555;-82
2022/02/22 10:37:01;;;;;;;46.97;6.65;;;9.50;99.90;;;;;;5006884;28;20177;-78
2022/02/22 10:39:27;;;;;;;41.72;4.68;;;9.40;99.90;;;;;;5060436;28;20174;-86
2022/02/22 10:41:56;;;;;;;46.25;5.15;;;9.40;99.90;;;;;;5090416;28;20241;-80
2022/02/22 10:44:35;;;;;;;37.65;6.72;;;9.30;99.90;;;;;;4993808;28;20232;-78
2022/02/22 10:47:03;;;;;;;30.20;5.05;;;9.20;99.90;;;;;;4995732;28;20181;-83
2022/02/22 10:49:33;;;;;;;27.60;6.15;;;9.20;99.90;;;;;;4991623;28;20181;-83
2022/02/22 10:52:08;;;;;;;16.92;3.97;;;9.20;99.90;;;;;;4992350;28;20681;-78
2022/02/22 10:54:33;;;;;;;16.63;5.50;;;9.20;99.90;;;;;;4992633;28;20200;-78
2022/02/22 10:57:00;;;;;;;31.38;5.07;;;9.20;99.90;;;;;;4992198;28;20169;-80
2022/02/22 10:59:26;;;;;;;41.80;5.70;;;9.30;99.90;;;;;;5026134;28;20633;-80
2022/02/22 11:01:53;;;;;;;28.40;6.57;;;9.40;99.90;;;;;;4992049;28;20222;-79
2022/02/22 11:04:19;;;;;;;36.85;5.68;;;9.40;99.90;;;;;;4990458;28;20212;-80
2022/02/22 11:06:45;;;;;;;31.08;5.82;;;9.30;99.90;;;;;;4993355;28;20165;-80
2022/02/22 11:09:17;;;;;;;18.02;5.35;;;9.40;99.90;;;;;;5015100;28;20893;-78
2022/02/22 11:11:48;;;;;;;30.92;5.43;;;9.40;99.90;;;;;;4991158;28;20618;-78
2022/02/22 11:14:30;;;;;;;20.55;4.13;;;9.60;99.90;;;;;;4990390;28;20238;-79
2022/02/22 11:16:58;;;;;;;30.77;5.97;;;9.60;99.90;;;;;;4991768;28;20220;-79
2022/02/22 11:19:40;;;;;;;17.67;5.97;;;9.70;99.90;;;;;;4993990;28;20625;-79
2022/02/22 11:22:19;;;;;;;23.13;5.70;;;9.80;99.90;;;;;;4993802;28;20695;-80
2022/02/22 11:24:45;;;;;;;18.73;4.55;;;9.80;99.90;;;;;;4989689;28;20216;-79
2022/02/22 11:27:11;;;;;;;15.63;4.90;;;9.70;99.90;;;;;;4992732;28;20629;-78
2022/02/22 11:29:36;;;;;;;19.40;4.53;;;9.60;99.90;;;;;;4992727;28;20768;-79
2022/02/22 11:32:15;;;;;;;26.08;4.25;;;9.60;99.90;;;;;;4993488;28;20212;-79
2022/02/22 11:34:42;;;;;;;23.75;6.03;;;9.60;99.90;;;;;;4996565;28;20193;-79
2022/02/22 11:37:11;;;;;;;20.45;4.20;;;9.60;99.90;;;;;;4996532;28;20178;-79
2022/02/22 11:39:51;;;;;;;19.27;5.30;;;9.60;99.90;;;;;;4994670;28;20165;-80
2022/02/22 11:42:20;;;;;;;21.58;5.47;;;9.70;99.90;;;;;;4995252;28;20177;-79
2022/02/22 11:44:56;;;;;;;16.20;4.35;;;9.80;99.90;;;;;;4998814;28;20216;-80
2022/02/22 11:47:22;;;;;;;15.23;5.38;;;9.80;99.90;;;;;;4996438;28;20177;-80
2022/02/22 11:49:56;;;;;;;18.92;5.28;;;9.80;99.90;;;;;;4998482;28;20208;-79
2022/02/22 11:52:39;;;;;;;15.82;4.90;;;9.70;99.90;;;;;;4994244;28;20234;-79
2022/02/22 11:55:13;;;;;;;23.75;4.88;;;9.70;99.90;;;;;;5001670;28;20189;-78
2022/02/22 11:57:45;;;;;;;21.17;5.25;;;9.80;99.90;;;;;;4995892;28;20548;-84
2022/02/22 12:00:14;;;;;;;17.92;4.63;;;9.70;99.90;;;;;;4992365;28;20622;-79
2022/02/22 12:02:42;;;;;;;23.17;4.97;;;9.90;99.90;;;;;;4993179;28;20176;-79
2022/02/22 12:05:27;;;;;;;29.08;5.40;;;10.00;99.90;;;;;;4993148;28;20267;-81
2022/02/22 12:08:01;;;;;;;20.95;5.45;;;10.20;99.90;;;;;;4993430;28;20170;-81
2022/02/22 12:10:28;;;;;;;20.98;5.82;;;10.10;99.90;;;;;;5000404;28;20182;-79
2022/02/22 12:13:15;;;;;;;15.93;5.22;;;10.20;99.90;;;;;;4991801;28;20254;-79
2022/02/22 12:15:44;;;;;;;24.95;5.20;;;10.20;99.90;;;;;;5029014;28;20197;-79
2022/02/22 12:18:15;;;;;;;27.23;5.60;;;10.20;99.90;;;;;;5093010;28;20169;-79
2022/02/22 12:20:43;;;;;;;28.38;5.68;;;10.20;99.90;;;;;;5053648;28;20177;-79
2022/02/22 12:23:15;;;;;;;22.15;5.78;;;10.30;99.90;;;;;;5012945;28;20640;-79
2022/02/22 12:25:41;;;;;;;21.35;5.68;;;10.20;99.90;;;;;;5093167;28;20190;-79
2022/02/22 12:28:06;;;;;;;18.73;5.30;;;10.30;99.90;;;;;;5079099;28;20203;-80
2022/02/22 12:30:37;;;;;;;16.02;4.90;;;10.50;99.90;;;;;;4986582;28;20204;-80
2022/02/22 12:33:04;;;;;;;19.88;5.65;;;10.50;99.90;;;;;;5023068;28;20162;-80
2022/02/22 12:35:42;;;;;;;20.13;5.05;;;10.50;99.90;;;;;;4989899;28;20197;-79
2022/02/22 12:38:34;;;;;;;19.90;4.68;;;10.40;99.90;;;;;;4993666;28;20184;-79
2022/02/22 12:41:01;;;;;;;12.48;4.10;;;10.60;99.90;;;;;;5064614;28;20177;-79
2022/02/22 12:43:27;;;;;;;20.38;5.25;;;10.60;99.90;;;;;;5074600;28;20201;-82
2022/02/22 12:45:53;;;;;;;19.80;4.00;;;10.70;99.90;;;;;;5012382;28;20170;-79
2022/02/22 12:48:21;;;;;;;14.05;4.50;;;10.80;99.90;;;;;;5094854;28;20170;-79